Time;durP1;ratioP1;P1;durP2;ratioP2;P2;SDS_P1;SDS_P2;PMS_P1;PMS_P2;Temp;Humidity;BMP_temperature;BMP_pressure;BME280_temperature;BME280_humidity;BME280_pressure;Samples;Min_cycle;Max_cycle;Signal;HPM_P1;HPM_P2
2021/10/07 00:01:19;;;;;;;4.72;3.60;;;13.90;99.90;;;;;;5081376;28;20255;-43
2021/10/07 00:03:52;;;;;;;5.28;3.08;;;13.90;99.90;;;;;;5081878;28;20422;-45
2021/10/07 00:06:20;;;;;;;3.53;3.05;;;13.90;99.90;;;;;;5081463;28;20510;-44
2021/10/07 00:08:48;;;;;;;3.50;2.38;;;14.00;99.90;;;;;;5081236;28;20236;-47
2021/10/07 00:11:16;;;;;;;3.53;3.00;;;13.90;99.90;;;;;;5081383;28;20220;-49
2021/10/07 00:13:44;;;;;;;6.95;3.95;;;14.00;99.90;;;;;;5080775;28;20234;-46
2021/10/07 00:16:11;;;;;;;2.95;2.75;;;13.90;99.90;;;;;;5080744;28;20230;-45
2021/10/07 00:18:41;;;;;;;2.80;2.60;;;14.00;99.90;;;;;;5081794;28;20195;-49
2021/10/07 00:21:08;;;;;;;4.80;3.05;;;14.10;99.90;;;;;;5081081;28;20221;-45
2021/10/07 00:23:45;;;;;;;3.70;2.53;;;13.90;99.90;;;;;;5078887;28;20215;-45
2021/10/07 00:26:12;;;;;;;3.65;3.03;;;13.90;99.90;;;;;;5079150;28;20207;-45
2021/10/07 00:28:39;;;;;;;2.90;2.70;;;13.90;99.90;;;;;;5081337;28;20569;-44
2021/10/07 00:31:12;;;;;;;2.63;2.50;;;13.90;99.90;;;;;;5082922;28;20553;-45
2021/10/07 00:39:03;;;;;;;4.03;3.65;;;13.80;99.90;;;;;;5080818;28;20194;-47
2021/10/07 00:41:40;;;;;;;3.60;3.20;;;13.80;99.90;;;;;;5080506;28;20217;-46
2021/10/07 00:44:10;;;;;;;3.28;2.70;;;13.80;99.90;;;;;;5079262;28;20229;-50
2021/10/07 00:46:53;;;;;;;4.63;2.53;;;13.80;99.90;;;;;;5081064;28;20199;-49
2021/10/07 00:49:22;;;;;;;4.05;2.95;;;13.80;99.90;;;;;;5080954;28;20198;-47
2021/10/07 00:51:50;;;;;;;3.55;3.25;;;13.90;99.90;;;;;;5080504;28;20441;-47
2021/10/07 00:54:22;;;;;;;2.67;2.47;;;13.80;99.90;;;;;;5080817;28;20258;-45
2021/10/07 00:56:49;;;;;;;4.57;3.35;;;13.80;99.90;;;;;;5080878;28;20194;-46
2021/10/07 00:59:16;;;;;;;3.42;3.15;;;13.80;99.90;;;;;;5080556;28;20199;-44
2021/10/07 01:01:44;;;;;;;3.53;2.60;;;13.80;99.90;;;;;;5078302;28;20267;-50
2021/10/07 01:04:12;;;;;;;3.28;3.08;;;13.70;99.90;;;;;;5080462;28;20202;-48
2021/10/07 01:06:42;;;;;;;2.92;2.60;;;13.80;99.90;;;;;;5080581;28;20221;-46
2021/10/07 01:09:10;;;;;;;2.75;2.55;;;13.80;99.90;;;;;;5080422;28;20203;-45
2021/10/07 01:11:38;;;;;;;3.35;3.15;;;14.00;99.90;;;;;;5081354;28;20202;-44
2021/10/07 01:14:05;;;;;;;4.00;3.60;;;13.90;99.90;;;;;;5079102;28;20215;-48
2021/10/07 01:16:34;;;;;;;6.40;3.10;;;13.80;99.90;;;;;;5082718;28;20222;-44
2021/10/07 01:19:02;;;;;;;3.85;3.10;;;13.90;99.90;;;;;;5082123;28;20509;-42
2021/10/07 01:21:30;;;;;;;3.45;3.17;;;14.00;99.90;;;;;;5081828;28;20232;-46
2021/10/07 01:23:57;;;;;;;3.72;3.20;;;14.00;99.90;;;;;;5080646;28;20214;-52
2021/10/07 01:26:26;;;;;;;5.10;3.50;;;13.90;99.90;;;;;;5078194;28;20225;-43
2021/10/07 01:28:53;;;;;;;3.65;3.30;;;13.80;99.90;;;;;;5079855;28;20271;-46
2021/10/07 01:31:21;;;;;;;3.25;3.03;;;13.80;99.90;;;;;;5079831;28;20199;-44
2021/10/07 01:33:48;;;;;;;4.53;4.10;;;13.80;99.90;;;;;;5079848;28;20242;-50
2021/10/07 01:36:15;;;;;;;3.47;3.20;;;13.80;99.90;;;;;;5079948;28;20268;-47
2021/10/07 01:38:42;;;;;;;3.65;3.10;;;13.90;99.90;;;;;;5079982;28;20225;-50
2021/10/07 01:41:10;;;;;;;6.35;5.75;;;13.90;99.90;;;;;;5078628;28;20199;-44
2021/10/07 01:43:37;;;;;;;3.40;3.10;;;13.90;99.90;;;;;;5080006;28;20268;-46
2021/10/07 01:46:04;;;;;;;3.88;3.58;;;13.80;99.90;;;;;;5077060;28;20202;-44
2021/10/07 01:48:32;;;;;;;5.88;5.00;;;13.80;99.90;;;;;;5080226;28;20202;-49
2021/10/07 01:51:00;;;;;;;7.18;4.07;;;13.90;99.90;;;;;;5078908;28;20244;-49
2021/10/07 01:53:27;;;;;;;4.07;3.67;;;13.80;99.90;;;;;;5078659;28;20218;-44
2021/10/07 01:55:55;;;;;;;5.10;4.57;;;13.80;99.90;;;;;;5078796;28;20592;-49
2021/10/07 01:58:25;;;;;;;5.25;3.80;;;13.90;99.90;;;;;;5076651;28;20245;-48
2021/10/07 02:00:52;;;;;;;5.32;4.82;;;13.80;99.90;;;;;;5076418;28;20259;-47
2021/10/07 02:03:20;;;;;;;5.05;4.65;;;13.90;99.90;;;;;;5076653;28;20222;-51
2021/10/07 02:05:47;;;;;;;6.57;5.25;;;13.80;99.90;;;;;;5076903;28;20211;-48
2021/10/07 02:08:14;;;;;;;5.95;5.32;;;13.70;99.90;;;;;;5078263;28;20216;-46
2021/10/07 02:10:41;;;;;;;8.88;4.72;;;13.70;99.90;;;;;;5078726;28;20252;-43
2021/10/07 02:13:09;;;;;;;11.60;5.28;;;13.80;99.90;;;;;;5077671;28;20234;-51
2021/10/07 02:15:36;;;;;;;6.22;5.30;;;13.80;99.90;;;;;;5075934;28;20541;-52
2021/10/07 02:18:03;;;;;;;8.80;5.93;;;13.70;99.90;;;;;;5078516;28;20366;-51
2021/10/07 02:20:30;;;;;;;7.22;5.95;;;13.60;99.90;;;;;;5080422;28;20195;-49
2021/10/07 02:22:58;;;;;;;6.65;6.05;;;13.50;99.90;;;;;;5077809;28;20214;-52
2021/10/07 02:25:25;;;;;;;6.68;5.75;;;13.50;99.90;;;;;;5077850;28;20237;-44
2021/10/07 02:27:52;;;;;;;6.60;5.72;;;13.40;99.90;;;;;;5080785;28;20221;-51
2021/10/07 02:30:19;;;;;;;7.32;6.60;;;13.40;99.90;;;;;;5079329;28;20403;-45
2021/10/07 02:32:46;;;;;;;6.63;5.90;;;13.40;99.90;;;;;;5079383;28;20227;-46
2021/10/07 02:35:15;;;;;;;6.95;6.38;;;13.30;99.90;;;;;;5077555;28;20539;-47
2021/10/07 02:37:44;;;;;;;6.03;5.38;;;13.50;99.90;;;;;;5079591;28;20244;-46
2021/10/07 02:40:12;;;;;;;5.90;5.40;;;13.40;99.90;;;;;;5078983;28;20432;-46
2021/10/07 02:42:40;;;;;;;8.48;7.30;;;13.30;99.90;;;;;;5079082;28;20215;-46
2021/10/07 02:45:09;;;;;;;9.60;5.85;;;13.30;99.90;;;;;;5071633;28;20233;-45
2021/10/07 02:47:38;;;;;;;8.00;7.00;;;13.20;99.90;;;;;;5077766;28;20513;-45
2021/10/07 02:50:07;;;;;;;7.22;6.00;;;13.20;99.90;;;;;;5077596;28;20264;-50
2021/10/07 02:52:35;;;;;;;6.93;6.22;;;13.20;99.90;;;;;;5078414;28;20226;-46
2021/10/07 02:55:03;;;;;;;7.63;6.22;;;13.30;99.90;;;;;;5077078;28;20244;-46
2021/10/07 02:57:31;;;;;;;6.95;6.25;;;13.20;99.90;;;;;;5076101;28;20435;-50
2021/10/07 02:59:58;;;;;;;6.95;6.30;;;13.10;99.90;;;;;;5074716;28;20194;-47
2021/10/07 03:02:25;;;;;;;6.57;5.97;;;13.10;99.90;;;;;;5075508;28;20227;-47
2021/10/07 03:04:52;;;;;;;8.10;6.22;;;13.10;99.90;;;;;;5076601;28;20198;-47
2021/10/07 03:07:20;;;;;;;6.97;6.30;;;13.10;99.90;;;;;;5078006;28;20197;-43
2021/10/07 03:09:47;;;;;;;8.98;7.20;;;13.10;99.90;;;;;;5078340;28;20187;-48
2021/10/07 03:12:14;;;;;;;5.90;5.20;;;13.20;99.90;;;;;;5083036;28;20281;-51
2021/10/07 03:14:42;;;;;;;9.07;6.18;;;13.20;99.90;;;;;;5083519;28;20203;-49
2021/10/07 03:17:10;;;;;;;7.05;6.35;;;13.20;99.90;;;;;;5080477;28;20544;-50
2021/10/07 03:19:37;;;;;;;8.45;5.53;;;13.20;99.90;;;;;;5078462;28;20199;-47
2021/10/07 03:22:06;;;;;;;10.18;6.78;;;13.20;99.90;;;;;;5073190;28;20273;-47
2021/10/07 03:24:33;;;;;;;6.15;5.65;;;13.20;99.90;;;;;;5078165;28;20198;-45
2021/10/07 03:27:01;;;;;;;8.27;7.00;;;13.30;99.90;;;;;;5076865;28;20429;-44
2021/10/07 03:29:28;;;;;;;10.93;5.38;;;13.40;99.90;;;;;;5077533;28;20498;-46
2021/10/07 03:31:55;;;;;;;9.77;6.38;;;13.30;99.90;;;;;;5077864;28;20229;-48
2021/10/07 03:34:23;;;;;;;9.50;6.97;;;13.30;99.90;;;;;;5077645;28;20252;-44
2021/10/07 03:36:50;;;;;;;8.70;5.93;;;13.30;99.90;;;;;;5077211;28;20276;-49
2021/10/07 03:39:18;;;;;;;6.45;5.82;;;13.30;99.90;;;;;;5074589;28;20525;-48
2021/10/07 03:41:45;;;;;;;8.88;6.93;;;13.30;99.90;;;;;;5075759;28;20489;-44
2021/10/07 03:44:12;;;;;;;9.30;6.82;;;13.40;99.90;;;;;;5075875;28;20199;-47
2021/10/07 03:46:39;;;;;;;10.32;6.07;;;13.40;99.90;;;;;;5074223;28;20444;-50
2021/10/07 03:49:07;;;;;;;7.45;6.53;;;13.40;99.90;;;;;;5075605;28;20203;-47
2021/10/07 03:51:34;;;;;;;7.70;5.65;;;13.40;99.90;;;;;;5081000;28;20236;-47
2021/10/07 03:54:01;;;;;;;6.80;6.10;;;13.30;99.90;;;;;;5079624;28;20218;-44
2021/10/07 03:56:28;;;;;;;6.78;6.20;;;13.30;99.90;;;;;;5078552;28;20215;-44
2021/10/07 03:58:56;;;;;;;7.35;6.30;;;13.20;99.90;;;;;;5081633;28;20198;-49
2021/10/07 04:01:23;;;;;;;8.70;6.20;;;13.20;99.90;;;;;;5077182;28;20257;-47
2021/10/07 04:03:51;;;;;;;7.50;6.65;;;13.20;99.90;;;;;;5062836;28;20218;-42
2021/10/07 04:06:18;;;;;;;6.13;5.63;;;13.20;99.90;;;;;;5076480;28;20254;-53
2021/10/07 04:08:46;;;;;;;8.63;7.35;;;13.00;99.90;;;;;;5069662;28;20256;-52
2021/10/07 04:11:13;;;;;;;7.05;6.45;;;13.00;99.90;;;;;;5071715;28;20203;-47
2021/10/07 04:13:40;;;;;;;9.20;8.25;;;13.10;99.90;;;;;;5068783;28;20227;-47
2021/10/07 04:16:07;;;;;;;8.63;7.70;;;13.10;99.90;;;;;;5064870;28;20230;-45
2021/10/07 04:18:35;;;;;;;7.85;7.13;;;13.00;99.90;;;;;;5066244;28;20266;-53
2021/10/07 04:21:02;;;;;;;9.98;8.88;;;13.10;99.90;;;;;;5068090;28;20264;-44
2021/10/07 04:23:30;;;;;;;9.38;7.93;;;13.10;99.90;;;;;;5072530;28;20262;-45
2021/10/07 04:25:57;;;;;;;7.47;6.88;;;13.00;99.90;;;;;;5071751;28;20199;-46
2021/10/07 04:28:24;;;;;;;9.98;8.00;;;13.10;99.90;;;;;;5071277;28;20248;-47
2021/10/07 04:30:51;;;;;;;7.82;7.10;;;13.10;99.90;;;;;;5070303;28;20266;-45
2021/10/07 04:33:19;;;;;;;8.18;7.38;;;13.20;99.90;;;;;;5072820;28;20231;-46
2021/10/07 04:35:47;;;;;;;9.05;8.15;;;13.20;99.90;;;;;;5074634;28;20222;-51
2021/10/07 04:38:14;;;;;;;8.85;8.05;;;13.10;99.90;;;;;;5076965;28;20214;-44
2021/10/07 04:40:41;;;;;;;8.75;7.93;;;13.10;99.90;;;;;;5068443;28;20196;-45
2021/10/07 04:43:08;;;;;;;11.45;8.07;;;13.10;99.90;;;;;;5069956;28;20280;-48
2021/10/07 04:45:35;;;;;;;9.93;7.32;;;13.20;99.90;;;;;;5073133;28;20218;-46
2021/10/07 04:48:03;;;;;;;7.15;6.55;;;13.30;99.90;;;;;;5066759;28;20245;-46
2021/10/07 04:50:30;;;;;;;6.90;6.30;;;13.40;99.90;;;;;;5075998;28;20198;-45
2021/10/07 04:52:57;;;;;;;9.52;8.32;;;13.60;99.90;;;;;;5075444;28;20215;-51
2021/10/07 04:55:25;;;;;;;7.85;7.03;;;13.50;99.90;;;;;;5066847;28;20195;-48
2021/10/07 04:57:52;;;;;;;9.35;6.07;;;13.70;99.90;;;;;;5065344;28;20196;-49
2021/10/07 05:00:19;;;;;;;9.48;7.15;;;13.80;99.90;;;;;;5073642;28;20415;-46
2021/10/07 05:02:46;;;;;;;10.98;7.38;;;13.60;99.90;;;;;;5065614;28;20224;-47
2021/10/07 05:05:14;;;;;;;7.70;7.05;;;13.70;99.90;;;;;;5073245;28;20215;-46
2021/10/07 05:07:43;;;;;;;8.35;6.78;;;13.60;99.90;;;;;;5073510;28;20195;-47
2021/10/07 05:10:11;;;;;;;9.80;7.45;;;13.70;99.90;;;;;;5077443;28;20290;-47
2021/10/07 05:12:40;;;;;;;9.68;7.30;;;13.70;99.90;;;;;;5080279;28;20281;-46
2021/10/07 05:15:09;;;;;;;8.07;7.25;;;13.70;99.90;;;;;;5058084;28;20241;-46
2021/10/07 05:17:36;;;;;;;8.13;7.32;;;13.70;99.90;;;;;;5077708;28;20220;-43
2021/10/07 05:20:05;;;;;;;8.50;7.32;;;13.70;99.90;;;;;;5065598;28;20488;-46
2021/10/07 05:22:33;;;;;;;9.10;7.57;;;13.60;99.90;;;;;;5067196;28;20278;-50
2021/10/07 05:25:00;;;;;;;12.23;8.50;;;13.40;99.90;;;;;;5070409;28;20437;-48
2021/10/07 05:27:27;;;;;;;9.23;7.25;;;13.40;99.90;;;;;;5075307;28;20245;-44
2021/10/07 05:29:55;;;;;;;8.68;7.90;;;13.40;99.90;;;;;;5078089;28;20202;-43
2021/10/07 05:32:22;;;;;;;11.82;8.23;;;13.30;99.90;;;;;;5068349;28;20419;-48
2021/10/07 05:34:50;;;;;;;8.50;6.32;;;13.40;99.90;;;;;;5071323;28;20211;-44
2021/10/07 05:37:18;;;;;;;7.88;7.18;;;13.50;99.90;;;;;;5061771;28;20227;-49
2021/10/07 05:39:46;;;;;;;8.27;7.38;;;13.60;99.90;;;;;;5080401;28;20248;-44
2021/10/07 05:42:13;;;;;;;13.55;7.70;;;13.50;99.90;;;;;;5076360;28;20264;-51
2021/10/07 05:44:40;;;;;;;8.00;6.22;;;13.60;99.90;;;;;;5075866;28;20195;-47
2021/10/07 05:47:07;;;;;;;10.57;7.93;;;13.70;99.90;;;;;;5075780;28;20304;-48
2021/10/07 05:49:35;;;;;;;32.55;7.80;;;13.60;99.90;;;;;;5077874;28;20203;-43
2021/10/07 05:52:04;;;;;;;7.82;7.13;;;13.70;99.90;;;;;;5076999;28;20302;-51
2021/10/07 05:54:31;;;;;;;8.48;7.68;;;13.80;99.90;;;;;;5078590;28;20211;-46
2021/10/07 05:56:58;;;;;;;10.77;7.38;;;13.80;99.90;;;;;;5076462;28;20222;-49
2021/10/07 05:59:25;;;;;;;7.18;6.47;;;13.80;99.90;;;;;;5066273;28;20195;-45
2021/10/07 06:01:54;;;;;;;12.02;6.95;;;13.80;99.90;;;;;;5068968;28;20267;-46
2021/10/07 06:04:21;;;;;;;12.18;7.78;;;13.80;99.90;;;;;;5061817;28;20211;-51
2021/10/07 06:06:48;;;;;;;7.50;6.85;;;13.90;99.90;;;;;;5068600;28;20206;-47
2021/10/07 06:09:15;;;;;;;9.55;7.30;;;13.90;99.90;;;;;;5075149;28;20206;-44
2021/10/07 06:11:42;;;;;;;8.63;7.82;;;13.90;99.90;;;;;;5075077;28;20496;-49
2021/10/07 06:14:09;;;;;;;8.25;7.45;;;13.90;99.90;;;;;;5075044;28;20214;-48
2021/10/07 06:16:39;;;;;;;12.70;8.25;;;13.80;99.90;;;;;;5077916;28;20211;-50
2021/10/07 06:19:15;;;;;;;9.05;8.18;;;14.00;99.90;;;;;;5071328;28;20210;-50
2021/10/07 06:21:42;;;;;;;9.18;8.18;;;14.00;99.90;;;;;;5069496;28;20259;-47
2021/10/07 06:24:09;;;;;;;11.10;9.07;;;14.00;99.90;;;;;;5070083;28;20436;-46
2021/10/07 06:26:39;;;;;;;11.02;6.50;;;14.20;99.90;;;;;;5070872;28;20203;-49
2021/10/07 06:29:06;;;;;;;8.13;7.32;;;14.30;99.90;;;;;;5077204;28;20203;-44
2021/10/07 06:31:34;;;;;;;8.43;7.13;;;14.50;99.90;;;;;;5070945;28;20253;-46
2021/10/07 06:34:01;;;;;;;11.55;8.13;;;14.70;99.90;;;;;;5066086;28;20288;-49
2021/10/07 06:36:28;;;;;;;10.48;8.35;;;14.80;99.90;;;;;;5071914;28;20281;-49
2021/10/07 06:38:55;;;;;;;8.50;7.60;;;15.00;99.90;;;;;;5069085;28;20241;-47
2021/10/07 06:41:23;;;;;;;10.25;8.80;;;15.10;99.90;;;;;;5066008;28;20433;-51
2021/10/07 06:43:50;;;;;;;8.82;7.78;;;15.20;99.90;;;;;;5063971;28;20269;-51
2021/10/07 06:46:17;;;;;;;14.48;8.55;;;15.20;99.90;;;;;;5049608;28;20207;-47
2021/10/07 06:48:44;;;;;;;12.68;9.43;;;15.20;99.90;;;;;;5071709;28;20283;-47
2021/10/07 06:51:14;;;;;;;17.17;9.35;;;15.10;99.90;;;;;;5070119;28;20203;-50
2021/10/07 06:53:41;;;;;;;11.35;8.60;;;15.20;99.90;;;;;;5060743;28;20425;-48
2021/10/07 06:56:08;;;;;;;13.40;8.80;;;15.40;99.90;;;;;;5067871;28;20502;-50
2021/10/07 06:58:36;;;;;;;14.50;10.18;;;15.50;99.90;;;;;;5066434;28;20187;-47
2021/10/07 07:01:03;;;;;;;9.55;8.65;;;15.50;99.90;;;;;;5065645;28;20227;-44
2021/10/07 07:03:31;;;;;;;9.20;8.20;;;15.40;99.90;;;;;;5071856;28;20260;-49
2021/10/07 07:05:59;;;;;;;9.07;8.18;;;15.50;99.90;;;;;;5065974;28;20282;-45
2021/10/07 07:08:26;;;;;;;10.13;8.98;;;15.40;99.90;;;;;;5067298;28;20196;-47
2021/10/07 07:10:53;;;;;;;11.13;9.25;;;15.30;99.90;;;;;;5063587;28;20195;-46
2021/10/07 07:13:20;;;;;;;9.60;8.68;;;15.20;99.90;;;;;;5065893;28;20255;-49
2021/10/07 07:15:47;;;;;;;16.35;10.07;;;15.10;99.90;;;;;;5071344;28;20199;-48
2021/10/07 07:18:15;;;;;;;9.52;8.52;;;15.20;99.90;;;;;;5066383;28;20608;-45
2021/10/07 07:20:42;;;;;;;13.95;10.90;;;15.40;99.90;;;;;;5073764;28;20198;-48
2021/10/07 07:23:10;;;;;;;13.05;9.18;;;15.20;99.90;;;;;;5066719;28;20265;-49
2021/10/07 07:25:38;;;;;;;11.93;9.60;;;15.00;99.90;;;;;;5076502;28;20221;-45
2021/10/07 07:28:05;;;;;;;11.10;9.45;;;14.90;99.90;;;;;;5077467;28;20203;-47
2021/10/07 07:30:33;;;;;;;11.48;9.63;;;14.70;99.90;;;;;;5071634;28;20337;-45
2021/10/07 07:33:01;;;;;;;13.35;10.38;;;14.80;99.90;;;;;;5071403;28;20322;-46
2021/10/07 07:35:32;;;;;;;13.70;9.70;;;14.90;99.90;;;;;;5080182;28;20378;-50
2021/10/07 07:38:01;;;;;;;11.32;9.98;;;15.00;99.90;;;;;;5075314;28;20464;-49
2021/10/07 07:40:31;;;;;;;17.13;9.70;;;15.10;99.90;;;;;;5077834;28;20203;-49
2021/10/07 07:42:59;;;;;;;11.85;10.75;;;14.80;99.90;;;;;;5072873;28;20219;-46
2021/10/07 07:45:27;;;;;;;12.20;10.38;;;14.70;99.90;;;;;;5077276;28;20498;-50
2021/10/07 07:47:57;;;;;;;13.23;11.00;;;14.50;99.90;;;;;;5079661;28;20438;-44
2021/10/07 07:50:27;;;;;;;12.85;11.10;;;14.60;99.90;;;;;;5068452;28;20398;-43
2021/10/07 07:52:55;;;;;;;14.65;11.45;;;14.50;99.90;;;;;;5073932;28;20291;-49
2021/10/07 07:55:22;;;;;;;12.50;10.27;;;14.30;99.90;;;;;;5072266;28;20210;-43
2021/10/07 07:57:50;;;;;;;12.40;10.05;;;14.30;99.90;;;;;;5075938;28;20222;-47
2021/10/07 08:00:17;;;;;;;12.40;10.73;;;14.30;99.90;;;;;;5068375;28;20196;-44
2021/10/07 08:02:44;;;;;;;13.55;11.00;;;14.40;99.90;;;;;;5074249;28;20269;-45
2021/10/07 08:05:12;;;;;;;15.23;12.25;;;14.60;99.90;;;;;;5069365;28;20198;-45
2021/10/07 08:07:40;;;;;;;14.13;11.45;;;14.60;99.90;;;;;;5077756;28;20391;-50
2021/10/07 08:10:07;;;;;;;18.02;11.10;;;14.60;99.90;;;;;;5075291;28;20203;-49
2021/10/07 08:12:35;;;;;;;11.70;10.50;;;14.60;99.90;;;;;;5078458;28;20235;-51
2021/10/07 08:15:06;;;;;;;18.40;12.48;;;14.80;99.90;;;;;;5079363;28;20199;-47
2021/10/07 08:17:34;;;;;;;14.52;11.98;;;15.20;99.90;;;;;;5079629;28;20223;-52
2021/10/07 08:20:05;;;;;;;17.15;11.80;;;15.30;99.90;;;;;;5078517;28;20474;-43
2021/10/07 08:22:33;;;;;;;14.57;12.35;;;15.60;99.90;;;;;;5065728;28;20215;-42
2021/10/07 08:25:00;;;;;;;20.30;13.15;;;15.60;99.90;;;;;;5076379;28;20204;-44
2021/10/07 08:27:28;;;;;;;16.73;11.98;;;16.00;99.90;;;;;;5067251;28;20221;-48
2021/10/07 08:29:56;;;;;;;13.60;12.20;;;16.50;99.90;;;;;;5071618;28;20444;-47
2021/10/07 08:32:23;;;;;;;18.25;13.45;;;16.90;99.90;;;;;;5066779;28;20221;-49
2021/10/07 08:34:51;;;;;;;23.00;15.52;;;16.80;99.90;;;;;;5069873;28;20242;-44
2021/10/07 08:37:18;;;;;;;17.92;13.55;;;16.60;99.90;;;;;;5077900;28;20251;-51
2021/10/07 08:39:45;;;;;;;21.10;13.20;;;16.50;99.90;;;;;;5075291;28;20196;-47
2021/10/07 08:42:12;;;;;;;16.20;13.63;;;16.40;99.90;;;;;;5074739;28;20434;-48
2021/10/07 08:44:39;;;;;;;17.20;13.30;;;16.40;99.90;;;;;;5075759;28;20405;-46
2021/10/07 08:47:07;;;;;;;18.77;13.13;;;16.40;99.90;;;;;;5066186;28;20772;-45
2021/10/07 08:49:38;;;;;;;18.95;14.27;;;16.30;99.90;;;;;;5064960;28;20449;-43
2021/10/07 08:52:06;;;;;;;23.00;14.68;;;16.20;99.90;;;;;;5075161;28;20239;-49
2021/10/07 08:54:34;;;;;;;22.90;16.40;;;16.00;99.90;;;;;;5066723;28;20245;-52
2021/10/07 08:57:02;;;;;;;26.50;15.38;;;16.10;99.90;;;;;;5077387;28;20568;-46
2021/10/07 08:59:30;;;;;;;29.13;15.00;;;16.30;99.90;;;;;;5066966;28;20261;-50
2021/10/07 09:01:58;;;;;;;21.17;15.25;;;16.20;99.90;;;;;;5077519;28;20447;-47
2021/10/07 09:04:33;;;;;;;24.23;16.40;;;16.10;99.90;;;;;;5078998;28;20224;-54
2021/10/07 09:07:07;;;;;;;23.33;16.30;;;16.20;99.90;;;;;;5067315;28;20224;-44
2021/10/07 09:09:37;;;;;;;22.58;16.75;;;16.30;99.90;;;;;;5066866;28;20473;-50
2021/10/07 09:12:09;;;;;;;21.10;17.53;;;16.40;99.90;;;;;;5068651;28;20224;-50
2021/10/07 09:14:46;;;;;;;26.50;18.90;;;16.40;99.90;;;;;;5069915;28;20661;-44
2021/10/07 09:17:19;;;;;;;26.70;19.03;;;16.40;99.90;;;;;;5074576;28;20504;-46
2021/10/07 09:19:48;;;;;;;23.10;17.30;;;16.20;99.90;;;;;;5073208;28;20426;-52
2021/10/07 09:22:18;;;;;;;20.57;15.53;;;16.10;99.90;;;;;;5077062;28;20441;-49
2021/10/07 09:24:57;;;;;;;22.83;17.30;;;16.00;99.90;;;;;;5075456;28;20822;-48
2021/10/07 09:27:36;;;;;;;18.83;15.60;;;16.00;99.90;;;;;;5078102;28;20424;-50
2021/10/07 09:30:05;;;;;;;22.55;17.02;;;15.90;99.90;;;;;;5073745;28;20199;-49
2021/10/07 09:32:39;;;;;;;25.48;18.27;;;15.90;99.90;;;;;;5065778;28;20445;-45
2021/10/07 09:35:10;;;;;;;23.98;17.33;;;15.80;99.90;;;;;;5070882;28;20245;-45
2021/10/07 09:37:45;;;;;;;28.80;19.65;;;15.60;99.90;;;;;;5074631;28;20224;-52
2021/10/07 09:40:13;;;;;;;25.15;16.95;;;15.60;99.90;;;;;;5069220;28;20209;-45
2021/10/07 09:42:52;;;;;;;25.13;20.70;;;15.60;99.90;;;;;;5080675;28;20215;-50
2021/10/07 09:45:30;;;;;;;26.55;20.88;;;15.70;99.90;;;;;;5081213;28;20200;-53
2021/10/07 09:48:00;;;;;;;26.95;19.73;;;15.70;99.90;;;;;;5065194;28;20199;-47
2021/10/07 09:50:36;;;;;;;26.35;20.90;;;15.60;99.90;;;;;;5068956;28;20191;-42
2021/10/07 09:53:04;;;;;;;25.45;20.65;;;15.50;99.90;;;;;;5063734;28;20219;-48
2021/10/07 09:55:36;;;;;;;27.23;22.08;;;15.40;99.90;;;;;;5074353;28;20265;-44
2021/10/07 09:58:09;;;;;;;33.72;21.75;;;15.20;99.90;;;;;;5070911;28;20286;-44
2021/10/07 10:00:43;;;;;;;27.80;21.35;;;15.20;99.90;;;;;;5067072;28;20195;-44
2021/10/07 10:03:11;;;;;;;29.92;19.48;;;15.20;99.90;;;;;;5061211;28;20568;-46
2021/10/07 10:05:39;;;;;;;33.15;20.00;;;15.00;99.90;;;;;;5066266;28;20195;-49
2021/10/07 10:08:12;;;;;;;24.25;19.27;;;14.90;99.90;;;;;;5060555;28;20203;-53
2021/10/07 10:10:41;;;;;;;33.55;23.13;;;15.00;99.90;;;;;;5073331;28;20636;-52
2021/10/07 10:13:09;;;;;;;27.92;21.17;;;15.00;99.90;;;;;;5064183;28;20248;-49
2021/10/07 10:15:37;;;;;;;33.22;24.02;;;15.00;99.90;;;;;;5061979;28;20239;-49
2021/10/07 10:18:13;;;;;;;32.35;22.83;;;15.10;99.90;;;;;;5061463;28;20258;-43
2021/10/07 10:20:51;;;;;;;29.73;21.73;;;15.10;99.90;;;;;;5064384;28;20422;-44
2021/10/07 10:23:21;;;;;;;33.42;22.73;;;14.90;99.90;;;;;;5069075;28;20229;-41
2021/10/07 10:25:58;;;;;;;35.42;24.92;;;14.80;99.90;;;;;;5072335;28;20257;-46
2021/10/07 10:28:42;;;;;;;36.45;24.95;;;14.70;99.90;;;;;;5075915;28;20207;-50
2021/10/07 10:31:18;;;;;;;34.55;24.30;;;14.70;99.90;;;;;;5062975;28;20529;-46
2021/10/07 10:33:49;;;;;;;31.17;23.00;;;14.70;99.90;;;;;;5070465;28;20254;-49
2021/10/07 10:36:27;;;;;;;34.58;25.00;;;14.70;99.90;;;;;;5067508;28;20310;-49
2021/10/07 10:39:23;;;;;;;34.10;23.13;;;14.80;99.90;;;;;;5065663;28;20346;-48
2021/10/07 10:42:01;;;;;;;36.00;23.25;;;14.80;99.90;;;;;;5066647;28;20200;-45
2021/10/07 10:44:28;;;;;;;28.75;21.10;;;14.80;99.90;;;;;;5068758;28;20226;-45
2021/10/07 10:47:07;;;;;;;28.30;21.33;;;14.80;99.90;;;;;;5067552;28;20195;-51
2021/10/07 10:49:42;;;;;;;31.92;23.30;;;14.80;99.90;;;;;;5074439;28;20281;-44
2021/10/07 10:52:14;;;;;;;32.72;21.90;;;14.90;99.90;;;;;;5071679;28;20252;-43
2021/10/07 10:54:46;;;;;;;30.23;20.60;;;15.10;99.90;;;;;;5068491;28;20245;-52
2021/10/07 10:57:29;;;;;;;30.13;21.92;;;15.20;99.90;;;;;;5062342;28;20227;-48
2021/10/07 11:00:28;;;;;;;30.80;22.00;;;15.20;99.90;;;;;;5071812;28;20204;-43
2021/10/07 11:03:08;;;;;;;35.50;22.90;;;15.30;99.90;;;;;;5073719;28;20227;-46
2021/10/07 11:06:01;;;;;;;31.80;20.23;;;15.30;99.90;;;;;;5058699;28;20199;-46
2021/10/07 11:08:31;;;;;;;25.98;20.60;;;15.10;99.90;;;;;;5074034;28;20202;-47
2021/10/07 11:11:06;;;;;;;28.38;22.13;;;15.20;99.90;;;;;;5074157;28;20310;-49
2021/10/07 11:13:46;;;;;;;34.65;21.45;;;15.30;99.90;;;;;;5071097;28;20228;-46
2021/10/07 11:16:17;;;;;;;30.00;23.00;;;15.30;99.90;;;;;;5060942;28;20209;-48
2021/10/07 11:18:46;;;;;;;32.15;24.35;;;15.40;99.90;;;;;;5069376;28;20223;-46
2021/10/07 11:21:18;;;;;;;28.23;22.13;;;15.50;99.90;;;;;;5066701;28;20451;-48
2021/10/07 11:23:52;;;;;;;28.75;21.90;;;15.80;99.90;;;;;;5074969;28;20232;-47
2021/10/07 11:26:27;;;;;;;33.00;22.70;;;16.10;99.90;;;;;;5071762;28;20200;-44
2021/10/07 11:28:54;;;;;;;32.80;22.67;;;16.30;99.90;;;;;;5082821;28;20571;-50
2021/10/07 11:31:25;;;;;;;31.90;24.23;;;16.60;99.90;;;;;;5064899;28;20454;-48
2021/10/07 11:33:58;;;;;;;39.80;26.47;;;16.90;99.90;;;;;;5069953;28;20784;-42
2021/10/07 11:36:28;;;;;;;27.60;21.60;;;17.00;99.90;;;;;;5072628;28;20606;-47
2021/10/07 11:38:56;;;;;;;35.00;23.13;;;17.20;99.90;;;;;;5072777;28;20472;-44
2021/10/07 11:41:34;;;;;;;30.47;20.67;;;17.30;99.90;;;;;;5064220;28;20483;-45
2021/10/07 11:44:04;;;;;;;30.30;23.40;;;17.40;99.90;;;;;;5071744;28;20427;-50
2021/10/07 11:46:35;;;;;;;35.67;25.50;;;17.20;99.90;;;;;;5070246;28;20448;-51
2021/10/07 11:49:05;;;;;;;33.77;24.83;;;17.00;99.90;;;;;;5071091;28;20480;-45
2021/10/07 11:51:34;;;;;;;31.47;25.13;;;16.70;99.90;;;;;;5075663;28;20431;-51
2021/10/07 11:54:04;;;;;;;34.60;26.00;;;16.70;99.90;;;;;;5071441;28;20604;-45
2021/10/07 11:56:36;;;;;;;32.63;23.33;;;16.80;99.90;;;;;;5070427;28;20626;-46
2021/10/07 11:59:06;;;;;;;37.13;24.63;;;16.60;99.90;;;;;;5078779;28;20491;-48
2021/10/07 12:01:35;;;;;;;35.90;23.27;;;16.70;99.90;;;;;;5082552;28;20465;-50
2021/10/07 12:04:05;;;;;;;29.67;23.10;;;16.80;99.90;;;;;;5069672;28;20440;-47
2021/10/07 12:06:35;;;;;;;33.17;23.07;;;16.90;99.90;;;;;;5076949;28;20433;-48
2021/10/07 12:09:04;;;;;;;33.10;24.43;;;17.00;99.90;;;;;;5065625;28;20505;-48
2021/10/07 12:11:31;;;;;;;39.53;25.33;;;17.20;99.90;;;;;;5071096;28;20422;-46
2021/10/07 12:14:01;;;;;;;33.73;22.90;;;17.20;99.90;;;;;;5072245;28;20445;-46
2021/10/07 12:16:37;;;;;;;33.60;22.07;;;17.30;99.90;;;;;;5076915;28;20439;-49
2021/10/07 12:19:12;;;;;;;35.57;23.80;;;17.20;99.90;;;;;;5072116;28;20524;-52
2021/10/07 12:21:44;;;;;;;30.20;21.40;;;17.00;99.90;;;;;;5076497;28;20475;-48
2021/10/07 12:24:13;;;;;;;35.33;22.47;;;16.60;99.90;;;;;;5079711;28;20535;-53
2021/10/07 12:26:47;;;;;;;30.97;23.90;;;16.40;99.90;;;;;;5075334;28;20474;-47
2021/10/07 12:29:21;;;;;;;39.37;26.90;;;16.30;99.90;;;;;;5076790;28;20420;-46
2021/10/07 12:32:02;;;;;;;31.63;21.77;;;16.20;99.90;;;;;;5068205;28;20416;-44
2021/10/07 12:34:34;;;;;;;34.30;23.27;;;16.00;99.90;;;;;;5075401;28;20413;-44
2021/10/07 12:37:05;;;;;;;40.20;27.85;;;15.70;99.90;;;;;;5080694;28;20438;-49
2021/10/07 12:39:38;;;;;;;30.67;25.27;;;15.60;99.90;;;;;;5069866;28;20264;-50
2021/10/07 12:42:15;;;;;;;32.80;25.40;;;15.60;99.90;;;;;;5072936;28;20239;-46
2021/10/07 12:44:55;;;;;;;27.45;20.40;;;15.60;99.90;;;;;;5068746;28;20196;-47
2021/10/07 12:47:28;;;;;;;31.52;21.50;;;15.80;99.90;;;;;;5069735;28;20635;-49
2021/10/07 12:49:58;;;;;;;32.63;22.95;;;15.90;99.90;;;;;;5073557;28;20269;-49
2021/10/07 12:52:37;;;;;;;34.53;23.20;;;15.90;99.90;;;;;;5069001;28;20220;-50
2021/10/07 12:55:07;;;;;;;29.02;22.27;;;16.00;99.90;;;;;;5066994;28;20428;-43